sensor_id;sensor_type;location;lat;lon;timestamp;pressure;altitude;pressure_sealevel;temperature;humidity
21623;BME280;10973;46.706;12.340;2023-04-23T00:00:00;87070.56;;;11.11;51.71
21623;BME280;10973;46.706;12.340;2023-04-23T00:02:31;87070.56;;;11.11;51.64
21623;BME280;10973;46.706;12.340;2023-04-23T00:05:04;87072.06;;;11.09;51.66
21623;BME280;10973;46.706;12.340;2023-04-23T00:07:33;87076.22;;;11.13;52.09
21623;BME280;10973;46.706;12.340;2023-04-23T00:10:01;87066.06;;;11.12;52.40
21623;BME280;10973;46.706;12.340;2023-04-23T00:12:30;87078.84;;;11.13;52.28
21623;BME280;10973;46.706;12.340;2023-04-23T00:14:58;87073.56;;;11.20;52.34
21623;BME280;10973;46.706;12.340;2023-04-23T00:17:26;87066.78;;;11.23;52.21
21623;BME280;10973;46.706;12.340;2023-04-23T00:19:53;87071.69;;;11.21;52.46
21623;BME280;10973;46.706;12.340;2023-04-23T00:22:20;87075.09;;;11.21;52.20
21623;BME280;10973;46.706;12.340;2023-04-23T00:24:48;87067.16;;;11.18;52.13
21623;BME280;10973;46.706;12.340;2023-04-23T00:27:15;87066.78;;;11.16;52.34
21623;BME280;10973;46.706;12.340;2023-04-23T00:29:42;87063.78;;;11.17;52.54
21623;BME280;10973;46.706;12.340;2023-04-23T00:32:10;87070.16;;;11.20;52.80
21623;BME280;10973;46.706;12.340;2023-04-23T00:34:37;87059.25;;;11.21;52.63
21623;BME280;10973;46.706;12.340;2023-04-23T00:37:05;87052.47;;;11.24;52.89
21623;BME280;10973;46.706;12.340;2023-04-23T00:39:32;87055.84;;;11.28;52.82
21623;BME280;10973;46.706;12.340;2023-04-23T00:41:59;87051.69;;;11.30;52.93
21623;BME280;10973;46.706;12.340;2023-04-23T00:44:27;87055.81;;;11.31;52.70
21623;BME280;10973;46.706;12.340;2023-04-23T00:46:54;87051.31;;;11.28;52.83
21623;BME280;10973;46.706;12.340;2023-04-23T00:49:23;87046.78;;;11.32;53.09
21623;BME280;10973;46.706;12.340;2023-04-23T00:51:51;87042.25;;;11.36;52.96
21623;BME280;10973;46.706;12.340;2023-04-23T00:54:18;87041.50;;;11.39;52.92
21623;BME280;10973;46.706;12.340;2023-04-23T00:56:46;87048.66;;;11.42;52.69
21623;BME280;10973;46.706;12.340;2023-04-23T00:59:14;87042.59;;;11.45;52.82
21623;BME280;10973;46.706;12.340;2023-04-23T01:01:42;87038.84;;;11.46;52.69
21623;BME280;10973;46.706;12.340;2023-04-23T01:04:13;87043.72;;;11.48;52.56
21623;BME280;10973;46.706;12.340;2023-04-23T01:06:43;87036.16;;;11.50;52.56
21623;BME280;10973;46.706;12.340;2023-04-23T01:09:11;87039.94;;;11.53;52.47
21623;BME280;10973;46.706;12.340;2023-04-23T01:11:42;87041.09;;;11.52;52.57
21623;BME280;10973;46.706;12.340;2023-04-23T01:14:10;87033.88;;;11.52;52.71
21623;BME280;10973;46.706;12.340;2023-04-23T01:16:38;87029.41;;;11.49;52.76
21623;BME280;10973;46.706;12.340;2023-04-23T01:19:07;87033.16;;;11.48;52.69
21623;BME280;10973;46.706;12.340;2023-04-23T01:21:38;87024.84;;;11.49;52.74
21623;BME280;10973;46.706;12.340;2023-04-23T01:24:07;87031.66;;;11.51;52.50
21623;BME280;10973;46.706;12.340;2023-04-23T01:26:34;87032.41;;;11.51;52.45
21623;BME280;10973;46.706;12.340;2023-04-23T01:29:02;87029.38;;;11.53;52.36
21623;BME280;10973;46.706;12.340;2023-04-23T01:31:31;87031.66;;;11.51;52.51
21623;BME280;10973;46.706;12.340;2023-04-23T01:33:59;87024.50;;;11.44;52.57
21623;BME280;10973;46.706;12.340;2023-04-23T01:36:28;87024.91;;;11.39;52.78
21623;BME280;10973;46.706;12.340;2023-04-23T01:38:56;87028.69;;;11.34;52.50
21623;BME280;10973;46.706;12.340;2023-04-23T01:41:23;87030.97;;;11.32;52.41
21623;BME280;10973;46.706;12.340;2023-04-23T01:43:51;87017.03;;;11.25;52.57
21623;BME280;10973;46.706;12.340;2023-04-23T01:46:20;87019.31;;;11.23;52.71
21623;BME280;10973;46.706;12.340;2023-04-23T01:48:47;87017.06;;;11.18;52.68
21623;BME280;10973;46.706;12.340;2023-04-23T01:51:15;87021.97;;;11.16;52.70
21623;BME280;10973;46.706;12.340;2023-04-23T01:53:42;87006.16;;;11.12;52.61
21623;BME280;10973;46.706;12.340;2023-04-23T01:56:10;87005.41;;;11.05;52.77
21623;BME280;10973;46.706;12.340;2023-04-23T01:58:38;87006.56;;;11.00;52.74
21623;BME280;10973;46.706;12.340;2023-04-23T02:01:05;87008.84;;;10.95;52.72
21623;BME280;10973;46.706;12.340;2023-04-23T02:03:32;87007.34;;;10.87;52.65
21623;BME280;10973;46.706;12.340;2023-04-23T02:06:00;87007.38;;;10.80;52.71
21623;BME280;10973;46.706;12.340;2023-04-23T02:08:27;87002.09;;;10.76;52.86
21623;BME280;10973;46.706;12.340;2023-04-23T02:10:55;86998.75;;;10.72;53.10
21623;BME280;10973;46.706;12.340;2023-04-23T02:13:22;86995.34;;;10.68;53.07
21623;BME280;10973;46.706;12.340;2023-04-23T02:15:49;86994.97;;;10.66;53.25
21623;BME280;10973;46.706;12.340;2023-04-23T02:18:17;86996.84;;;10.62;53.36
21623;BME280;10973;46.706;12.340;2023-04-23T02:20:44;86996.50;;;10.60;53.39
21623;BME280;10973;46.706;12.340;2023-04-23T02:23:11;86987.81;;;10.59;53.80
21623;BME280;10973;46.706;12.340;2023-04-23T02:25:39;86985.19;;;10.59;53.43
21623;BME280;10973;46.706;12.340;2023-04-23T02:28:06;86984.81;;;10.57;53.45
21623;BME280;10973;46.706;12.340;2023-04-23T02:30:34;86981.06;;;10.58;53.65
21623;BME280;10973;46.706;12.340;2023-04-23T02:33:02;86986.31;;;10.55;53.63
21623;BME280;10973;46.706;12.340;2023-04-23T02:35:30;86982.19;;;10.54;53.68
21623;BME280;10973;46.706;12.340;2023-04-23T02:37:57;86979.16;;;10.52;53.83
21623;BME280;10973;46.706;12.340;2023-04-23T02:40:24;86973.91;;;10.48;53.89
21623;BME280;10973;46.706;12.340;2023-04-23T02:42:51;86970.16;;;10.49;54.22
21623;BME280;10973;46.706;12.340;2023-04-23T02:45:19;86980.69;;;10.53;54.07
21623;BME280;10973;46.706;12.340;2023-04-23T02:47:46;86970.91;;;10.53;54.15
21623;BME280;10973;46.706;12.340;2023-04-23T02:50:13;86980.31;;;10.54;54.11
21623;BME280;10973;46.706;12.340;2023-04-23T02:52:41;86980.31;;;10.54;54.31
21623;BME280;10973;46.706;12.340;2023-04-23T02:55:08;86976.16;;;10.57;54.27
21623;BME280;10973;46.706;12.340;2023-04-23T02:57:36;86982.19;;;10.57;54.18
21623;BME280;10973;46.706;12.340;2023-04-23T03:00:04;86975.03;;;10.58;54.19
21623;BME280;10973;46.706;12.340;2023-04-23T03:02:32;86979.56;;;10.54;54.26
21623;BME280;10973;46.706;12.340;2023-04-23T03:04:59;86982.19;;;10.50;54.42
21623;BME280;10973;46.706;12.340;2023-04-23T03:07:27;86980.31;;;10.51;54.37
21623;BME280;10973;46.706;12.340;2023-04-23T03:09:54;86986.72;;;10.46;54.92
21623;BME280;10973;46.706;12.340;2023-04-23T03:12:21;86987.47;;;10.47;54.86
21623;BME280;10973;46.706;12.340;2023-04-23T03:14:49;86997.25;;;10.43;55.00
21623;BME280;10973;46.706;12.340;2023-04-23T03:17:16;86994.25;;;10.37;54.97
21623;BME280;10973;46.706;12.340;2023-04-23T03:19:43;86994.25;;;10.37;55.02
21623;BME280;10973;46.706;12.340;2023-04-23T03:22:11;86996.13;;;10.37;55.06
21623;BME280;10973;46.706;12.340;2023-04-23T03:24:38;86993.88;;;10.32;55.05
21623;BME280;10973;46.706;12.340;2023-04-23T03:27:06;86996.88;;;10.34;55.15
21623;BME280;10973;46.706;12.340;2023-04-23T03:29:33;86998.03;;;10.33;55.16
21623;BME280;10973;46.706;12.340;2023-04-23T03:32:01;87002.13;;;10.34;55.24
21623;BME280;10973;46.706;12.340;2023-04-23T03:34:28;86997.28;;;10.36;54.96
21623;BME280;10973;46.706;12.340;2023-04-23T03:36:55;87002.53;;;10.36;55.00
21623;BME280;10973;46.706;12.340;2023-04-23T03:39:23;87005.19;;;10.36;54.89
21623;BME280;10973;46.706;12.340;2023-04-23T03:41:50;87002.13;;;10.34;55.11
21623;BME280;10973;46.706;12.340;2023-04-23T03:44:17;87008.94;;;10.31;55.15
21623;BME280;10973;46.706;12.340;2023-04-23T03:46:44;87005.19;;;10.29;55.19
21623;BME280;10973;46.706;12.340;2023-04-23T03:49:11;87005.19;;;10.29;55.31
21623;BME280;10973;46.706;12.340;2023-04-23T03:51:39;87007.41;;;10.30;55.21
21623;BME280;10973;46.706;12.340;2023-04-23T03:54:06;87010.44;;;10.29;55.30
21623;BME280;10973;46.706;12.340;2023-04-23T03:56:33;87017.22;;;10.26;55.41
21623;BME280;10973;46.706;12.340;2023-04-23T03:59:00;87008.94;;;10.24;55.29
21623;BME280;10973;46.706;12.340;2023-04-23T04:01:28;87016.44;;;10.26;55.33
21623;BME280;10973;46.706;12.340;2023-04-23T04:03:55;87010.44;;;10.29;55.30
21623;BME280;10973;46.706;12.340;2023-04-23T04:06:23;87012.31;;;10.32;55.24
21623;BME280;10973;46.706;12.340;2023-04-23T04:08:50;87010.44;;;10.36;55.17
21623;BME280;10973;46.706;12.340;2023-04-23T04:11:17;87000.25;;;10.41;55.01
21623;BME280;10973;46.706;12.340;2023-04-23T04:13:44;87010.81;;;10.45;55.06
21623;BME280;10973;46.706;12.340;2023-04-23T04:16:12;87004.41;;;10.46;55.03
21623;BME280;10973;46.706;12.340;2023-04-23T04:18:39;86998.75;;;10.47;55.02
21623;BME280;10973;46.706;12.340;2023-04-23T04:21:06;86987.84;;;10.49;54.97
21623;BME280;10973;46.706;12.340;2023-04-23T04:23:34;86992.75;;;10.47;55.12
21623;BME280;10973;46.706;12.340;2023-04-23T04:26:01;86994.59;;;10.50;55.04
21623;BME280;10973;46.706;12.340;2023-04-23T04:28:28;86987.84;;;10.49;54.97
21623;BME280;10973;46.706;12.340;2023-04-23T04:30:56;86993.09;;;10.52;54.96
21623;BME280;10973;46.706;12.340;2023-04-23T04:33:23;86989.72;;;10.52;54.99
21623;BME280;10973;46.706;12.340;2023-04-23T04:35:51;86982.56;;;10.52;54.97
21623;BME280;10973;46.706;12.340;2023-04-23T04:38:18;86978.44;;;10.51;54.88
21623;BME280;10973;46.706;12.340;2023-04-23T04:40:45;86972.78;;;10.53;55.09
21623;BME280;10973;46.706;12.340;2023-04-23T04:43:12;86968.28;;;10.53;55.08
21623;BME280;10973;46.706;12.340;2023-04-23T04:45:40;86977.31;;;10.56;54.96
21623;BME280;10973;46.706;12.340;2023-04-23T04:48:07;86975.03;;;10.58;55.23
21623;BME280;10973;46.706;12.340;2023-04-23T04:50:35;86971.25;;;10.59;55.25
21623;BME280;10973;46.706;12.340;2023-04-23T04:53:02;86968.25;;;10.60;55.51
21623;BME280;10973;46.706;12.340;2023-04-23T04:55:29;86961.09;;;10.61;55.47
21623;BME280;10973;46.706;12.340;2023-04-23T04:57:57;86962.25;;;10.60;55.80
21623;BME280;10973;46.706;12.340;2023-04-23T05:00:27;86962.63;;;10.58;55.75
21623;BME280;10973;46.706;12.340;2023-04-23T05:02:56;86965.59;;;10.64;55.73
21623;BME280;10973;46.706;12.340;2023-04-23T05:05:26;86959.94;;;10.65;55.76
21623;BME280;10973;46.706;12.340;2023-04-23T05:07:54;86965.97;;;10.66;55.87
21623;BME280;10973;46.706;12.340;2023-04-23T05:10:21;86955.44;;;10.66;55.87
21623;BME280;10973;46.706;12.340;2023-04-23T05:12:48;86960.72;;;10.69;55.95
21623;BME280;10973;46.706;12.340;2023-04-23T05:15:16;86973.13;;;10.76;55.99
21623;BME280;10973;46.706;12.340;2023-04-23T05:17:43;86960.69;;;10.80;55.85
21623;BME280;10973;46.706;12.340;2023-04-23T05:20:11;86967.06;;;10.86;55.73
21623;BME280;10973;46.706;12.340;2023-04-23T05:22:40;86961.03;;;10.89;55.81
21623;BME280;10973;46.706;12.340;2023-04-23T05:25:09;86964.81;;;10.85;55.87
21623;BME280;10973;46.706;12.340;2023-04-23T05:27:38;86971.59;;;10.82;56.13
21623;BME280;10973;46.706;12.340;2023-04-23T05:30:08;86968.56;;;10.87;56.04
21623;BME280;10973;46.706;12.340;2023-04-23T05:32:37;86974.94;;;10.93;55.82
21623;BME280;10973;46.706;12.340;2023-04-23T05:35:05;86962.13;;;10.95;55.76
21623;BME280;10973;46.706;12.340;2023-04-23T05:37:33;86962.91;;;10.92;55.92
21623;BME280;10973;46.706;12.340;2023-04-23T05:40:00;86962.91;;;10.89;56.05
21623;BME280;10973;46.706;12.340;2023-04-23T05:42:28;86962.56;;;10.83;56.30
21623;BME280;10973;46.706;12.340;2023-04-23T05:44:55;86966.69;;;10.88;56.36
21623;BME280;10973;46.706;12.340;2023-04-23T05:47:22;86964.03;;;10.91;56.17
21623;BME280;10973;46.706;12.340;2023-04-23T05:49:50;86970.03;;;10.99;56.06
21623;BME280;10973;46.706;12.340;2023-04-23T05:52:18;86966.25;;;11.03;55.96
21623;BME280;10973;46.706;12.340;2023-04-23T05:54:45;86964.00;;;10.98;55.85
21623;BME280;10973;46.706;12.340;2023-04-23T05:57:12;86970.75;;;11.06;55.57
21623;BME280;10973;46.706;12.340;2023-04-23T05:59:39;86965.09;;;11.11;56.13
21623;BME280;10973;46.706;12.340;2023-04-23T06:02:09;86965.84;;;11.12;56.10
21623;BME280;10973;46.706;12.340;2023-04-23T06:04:37;86970.38;;;11.15;56.12
21623;BME280;10973;46.706;12.340;2023-04-23T06:07:05;86968.84;;;11.17;55.98
21623;BME280;10973;46.706;12.340;2023-04-23T06:09:33;86970.72;;;11.24;56.05
21623;BME280;10973;46.706;12.340;2023-04-23T06:12:00;86968.41;;;11.29;55.94
21623;BME280;10973;46.706;12.340;2023-04-23T06:14:28;86973.31;;;11.31;55.75
21623;BME280;10973;46.706;12.340;2023-04-23T06:16:55;86974.81;;;11.32;55.86
21623;BME280;10973;46.706;12.340;2023-04-23T06:19:22;86968.38;;;11.36;55.57
21623;BME280;10973;46.706;12.340;2023-04-23T06:21:50;86971.34;;;11.45;55.41
21623;BME280;10973;46.706;12.340;2023-04-23T06:24:17;86967.56;;;11.50;55.50
21623;BME280;10973;46.706;12.340;2023-04-23T06:26:44;86971.31;;;11.56;55.46
21623;BME280;10973;46.706;12.340;2023-04-23T06:29:12;86972.78;;;11.64;55.30
21623;BME280;10973;46.706;12.340;2023-04-23T06:31:39;86972.38;;;11.73;55.24
21623;BME280;10973;46.706;12.340;2023-04-23T06:34:07;86963.28;;;11.77;55.27
21623;BME280;10973;46.706;12.340;2023-04-23T06:36:34;86962.94;;;11.79;55.41
21623;BME280;10973;46.706;12.340;2023-04-23T06:39:02;86965.50;;;11.86;55.38
21623;BME280;10973;46.706;12.340;2023-04-23T06:41:29;86962.44;;;11.94;55.46
21623;BME280;10973;46.706;12.340;2023-04-23T06:43:56;86966.16;;;12.00;55.16
21623;BME280;10973;46.706;12.340;2023-04-23T06:46:24;86960.09;;;12.07;54.91
21623;BME280;10973;46.706;12.340;2023-04-23T06:48:51;86955.53;;;12.11;54.51
21623;BME280;10973;46.706;12.340;2023-04-23T06:51:18;86950.59;;;12.16;54.64
21623;BME280;10973;46.706;12.340;2023-04-23T06:53:46;86945.22;;;12.27;54.38
21623;BME280;10973;46.706;12.340;2023-04-23T06:56:13;86947.78;;;12.34;54.30
21623;BME280;10973;46.706;12.340;2023-04-23T06:58:41;86938.63;;;12.46;54.23
21623;BME280;10973;46.706;12.340;2023-04-23T07:01:08;86936.34;;;12.51;54.11
21623;BME280;10973;46.706;12.340;2023-04-23T07:03:36;86940.34;;;12.66;54.08
21623;BME280;10973;46.706;12.340;2023-04-23T07:06:04;86936.94;;;12.66;53.90
21623;BME280;10973;46.706;12.340;2023-04-23T07:08:31;86935.38;;;12.72;53.90
21623;BME280;10973;46.706;12.340;2023-04-23T07:10:58;86930.41;;;12.77;53.40
21623;BME280;10973;46.706;12.340;2023-04-23T07:13:26;86931.88;;;12.82;53.12
21623;BME280;10973;46.706;12.340;2023-04-23T07:15:53;86931.84;;;12.85;53.24
21623;BME280;10973;46.706;12.340;2023-04-23T07:18:20;86931.75;;;12.93;52.95
21623;BME280;10973;46.706;12.340;2023-04-23T07:20:47;86930.63;;;12.94;52.75
21623;BME280;10973;46.706;12.340;2023-04-23T07:23:15;86931.69;;;13.00;52.78
21623;BME280;10973;46.706;12.340;2023-04-23T07:25:43;86919.63;;;12.99;52.60
21623;BME280;10973;46.706;12.340;2023-04-23T07:28:10;86927.84;;;13.08;52.60
21623;BME280;10973;46.706;12.340;2023-04-23T07:30:37;86930.81;;;13.13;52.55
21623;BME280;10973;46.706;12.340;2023-04-23T07:33:05;86933.84;;;13.12;52.22
21623;BME280;10973;46.706;12.340;2023-04-23T07:35:32;86923.22;;;13.15;52.04
21623;BME280;10973;46.706;12.340;2023-04-23T07:38:00;86923.91;;;13.23;51.70
21623;BME280;10973;46.706;12.340;2023-04-23T07:40:27;86920.81;;;13.28;51.59
21623;BME280;10973;46.706;12.340;2023-04-23T07:42:55;86916.28;;;13.28;51.08
21623;BME280;10973;46.706;12.340;2023-04-23T07:45:23;86919.03;;;13.18;51.41
21623;BME280;10973;46.706;12.340;2023-04-23T07:47:50;86920.50;;;13.22;51.40
21623;BME280;10973;46.706;12.340;2023-04-23T07:50:17;86923.41;;;13.31;51.37
21623;BME280;10973;46.706;12.340;2023-04-23T07:52:45;86918.09;;;13.35;51.51
21623;BME280;10973;46.706;12.340;2023-04-23T07:55:12;86916.56;;;13.34;51.76
21623;BME280;10973;46.706;12.340;2023-04-23T07:57:40;86918.47;;;13.33;50.98
21623;BME280;10973;46.706;12.340;2023-04-23T08:00:08;86916.91;;;13.39;51.25
21623;BME280;10973;46.706;12.340;2023-04-23T08:02:35;86910.41;;;13.44;51.02
21623;BME280;10973;46.706;12.340;2023-04-23T08:05:03;86924.78;;;13.43;50.62
21623;BME280;10973;46.706;12.340;2023-04-23T08:07:31;86920.59;;;13.45;50.45
21623;BME280;10973;46.706;12.340;2023-04-23T08:09:58;86925.94;;;13.42;50.21
21623;BME280;10973;46.706;12.340;2023-04-23T08:12:26;86924.84;;;13.39;50.09
21623;BME280;10973;46.706;12.340;2023-04-23T08:14:53;86917.59;;;13.43;49.63
21623;BME280;10973;46.706;12.340;2023-04-23T08:17:21;86925.72;;;13.59;49.72
21623;BME280;10973;46.706;12.340;2023-04-23T08:19:48;86924.47;;;13.68;49.48
21623;BME280;10973;46.706;12.340;2023-04-23T08:22:15;86911.19;;;13.71;49.08
21623;BME280;10973;46.706;12.340;2023-04-23T08:24:43;86919.81;;;13.79;48.86
21623;BME280;10973;46.706;12.340;2023-04-23T08:27:11;86916.41;;;13.78;49.26
21623;BME280;10973;46.706;12.340;2023-04-23T08:29:39;86921.19;;;13.87;48.95
21623;BME280;10973;46.706;12.340;2023-04-23T08:32:06;86914.59;;;13.98;48.73
21623;BME280;10973;46.706;12.340;2023-04-23T08:34:34;86916.78;;;14.03;48.79
21623;BME280;10973;46.706;12.340;2023-04-23T08:37:01;86911.50;;;14.03;48.60
21623;BME280;10973;46.706;12.340;2023-04-23T08:39:29;86912.09;;;14.14;48.28
21623;BME280;10973;46.706;12.340;2023-04-23T08:42:04;86907.88;;;14.17;47.83
21623;BME280;10973;46.706;12.340;2023-04-23T08:44:35;86912.66;;;14.25;47.68
21623;BME280;10973;46.706;12.340;2023-04-23T08:47:06;86910.13;;;14.18;47.39
21623;BME280;10973;46.706;12.340;2023-04-23T08:49:33;86906.53;;;14.32;47.62
21623;BME280;10973;46.706;12.340;2023-04-23T08:52:16;86901.66;;;14.31;47.54
21623;BME280;10973;46.706;12.340;2023-04-23T08:54:53;86901.72;;;14.23;48.16
21623;BME280;10973;46.706;12.340;2023-04-23T08:57:21;86905.75;;;14.35;48.12
21623;BME280;10973;46.706;12.340;2023-04-23T08:59:49;86898.16;;;14.34;47.79
21623;BME280;10973;46.706;12.340;2023-04-23T09:02:17;86893.81;;;14.47;47.82
21623;BME280;10973;46.706;12.340;2023-04-23T09:04:45;86895.41;;;14.41;48.25
21623;BME280;10973;46.706;12.340;2023-04-23T09:07:15;86891.50;;;14.49;47.89
21623;BME280;10973;46.706;12.340;2023-04-23T09:09:43;86890.66;;;14.52;47.99
21623;BME280;10973;46.706;12.340;2023-04-23T09:12:10;86887.34;;;14.48;47.35
21623;BME280;10973;46.706;12.340;2023-04-23T09:14:38;86881.16;;;14.31;48.10
21623;BME280;10973;46.706;12.340;2023-04-23T09:17:05;86876.28;;;14.29;48.71
21623;BME280;10973;46.706;12.340;2023-04-23T09:19:33;86881.63;;;14.26;48.60
21623;BME280;10973;46.706;12.340;2023-04-23T09:22:00;86876.31;;;14.26;48.22
21623;BME280;10973;46.706;12.340;2023-04-23T09:24:28;86872.00;;;14.36;48.00
21623;BME280;10973;46.706;12.340;2023-04-23T09:26:57;86868.66;;;14.32;48.14
21623;BME280;10973;46.706;12.340;2023-04-23T09:29:24;86863.88;;;14.23;48.42
21623;BME280;10973;46.706;12.340;2023-04-23T09:32:02;86858.75;;;14.36;48.53
21623;BME280;10973;46.706;12.340;2023-04-23T09:34:35;86856.47;;;14.38;48.00
21623;BME280;10973;46.706;12.340;2023-04-23T09:37:05;86851.50;;;14.40;47.75
21623;BME280;10973;46.706;12.340;2023-04-23T09:39:33;86849.53;;;14.44;46.80
21623;BME280;10973;46.706;12.340;2023-04-23T09:42:04;86841.59;;;14.44;47.04
21623;BME280;10973;46.706;12.340;2023-04-23T09:44:33;86847.41;;;14.58;47.78
21623;BME280;10973;46.706;12.340;2023-04-23T09:47:07;86849.19;;;14.65;47.18
21623;BME280;10973;46.706;12.340;2023-04-23T09:49:48;86843.88;;;14.65;46.89
21623;BME280;10973;46.706;12.340;2023-04-23T09:52:17;86833.75;;;14.79;47.19
21623;BME280;10973;46.706;12.340;2023-04-23T09:54:45;86833.69;;;14.83;47.33
21623;BME280;10973;46.706;12.340;2023-04-23T09:57:12;86833.91;;;14.92;47.02
21623;BME280;10973;46.706;12.340;2023-04-23T09:59:40;86825.19;;;14.91;46.68
21623;BME280;10973;46.706;12.340;2023-04-23T10:02:19;86833.47;;;14.93;46.72
21623;BME280;10973;46.706;12.340;2023-04-23T10:04:50;86825.09;;;14.95;46.30
21623;BME280;10973;46.706;12.340;2023-04-23T10:07:19;86824.22;;;15.01;46.33
21623;BME280;10973;46.706;12.340;2023-04-23T10:09:47;86822.03;;;15.16;45.96
21623;BME280;10973;46.706;12.340;2023-04-23T10:12:16;86825.63;;;15.26;45.90
21623;BME280;10973;46.706;12.340;2023-04-23T10:15:04;86836.31;;;15.22;45.60
21623;BME280;10973;46.706;12.340;2023-04-23T10:17:34;86840.47;;;15.23;45.47
21623;BME280;10973;46.706;12.340;2023-04-23T10:20:03;86838.28;;;15.18;45.30
21623;BME280;10973;46.706;12.340;2023-04-23T10:22:34;86831.75;;;15.23;44.64
21623;BME280;10973;46.706;12.340;2023-04-23T10:25:11;86827.69;;;15.18;44.60
21623;BME280;10973;46.706;12.340;2023-04-23T10:27:41;86824.47;;;15.27;44.86
21623;BME280;10973;46.706;12.340;2023-04-23T10:30:20;86830.38;;;15.34;44.81
21623;BME280;10973;46.706;12.340;2023-04-23T10:32:49;86820.91;;;15.33;44.92
21623;BME280;10973;46.706;12.340;2023-04-23T10:35:17;86823.94;;;15.35;44.68
21623;BME280;10973;46.706;12.340;2023-04-23T10:37:46;86825.28;;;15.43;44.60
21623;BME280;10973;46.706;12.340;2023-04-23T10:40:25;86825.69;;;15.42;44.31
21623;BME280;10973;46.706;12.340;2023-04-23T10:42:56;86822.66;;;15.24;43.95
21623;BME280;10973;46.706;12.340;2023-04-23T10:45:24;86828.34;;;15.22;44.08
21623;BME280;10973;46.706;12.340;2023-04-23T10:47:55;86836.25;;;15.06;44.49
21623;BME280;10973;46.706;12.340;2023-04-23T10:50:28;86836.56;;;14.92;44.59
21623;BME280;10973;46.706;12.340;2023-04-23T10:52:57;86829.19;;;14.80;45.12
21623;BME280;10973;46.706;12.340;2023-04-23T10:55:28;86833.53;;;14.70;46.35
21623;BME280;10973;46.706;12.340;2023-04-23T10:58:04;86834.94;;;14.55;47.12
21623;BME280;10973;46.706;12.340;2023-04-23T11:03:35;86843.06;;;14.21;48.11
21623;BME280;10973;46.706;12.340;2023-04-23T11:06:12;86848.84;;;14.16;48.59
21623;BME280;10973;46.706;12.340;2023-04-23T11:08:53;86851.38;;;14.23;48.68
21623;BME280;10973;46.706;12.340;2023-04-23T11:11:42;86849.97;;;14.15;48.79
21623;BME280;10973;46.706;12.340;2023-04-23T11:14:12;86854.81;;;14.20;49.35
21623;BME280;10973;46.706;12.340;2023-04-23T11:16:40;86854.38;;;14.25;50.36
21623;BME280;10973;46.706;12.340;2023-04-23T11:19:10;86853.19;;;14.30;52.28
21623;BME280;10973;46.706;12.340;2023-04-23T11:22:00;86850.34;;;14.41;52.39
21623;BME280;10973;46.706;12.340;2023-04-23T11:24:40;86853.97;;;14.50;52.04
21623;BME280;10973;46.706;12.340;2023-04-23T11:27:12;86852.94;;;14.67;51.13
21623;BME280;10973;46.706;12.340;2023-04-23T11:29:45;86847.63;;;14.87;51.09
21623;BME280;10973;46.706;12.340;2023-04-23T11:32:16;86843.88;;;15.04;50.83
21623;BME280;10973;46.706;12.340;2023-04-23T11:34:46;86843.81;;;15.27;49.18
21623;BME280;10973;46.706;12.340;2023-04-23T11:37:15;86834.78;;;15.44;47.68
21623;BME280;10973;46.706;12.340;2023-04-23T11:39:44;86826.34;;;15.82;48.55
21623;BME280;10973;46.706;12.340;2023-04-23T11:42:16;86823.78;;;16.26;45.37
21623;BME280;10973;46.706;12.340;2023-04-23T11:44:47;86827.03;;;16.50;45.02
21623;BME280;10973;46.706;12.340;2023-04-23T11:47:15;86817.66;;;16.62;44.15
21623;BME280;10973;46.706;12.340;2023-04-23T11:49:43;86816.84;;;16.77;43.89
21623;BME280;10973;46.706;12.340;2023-04-23T11:52:13;86818.69;;;16.80;43.42
21623;BME280;10973;46.706;12.340;2023-04-23T11:54:40;86816.44;;;16.79;42.99
21623;BME280;10973;46.706;12.340;2023-04-23T11:57:09;86814.47;;;16.67;42.14
21623;BME280;10973;46.706;12.340;2023-04-23T11:59:36;86804.53;;;16.55;42.42
21623;BME280;10973;46.706;12.340;2023-04-23T12:02:04;86806.25;;;16.45;42.69
21623;BME280;10973;46.706;12.340;2023-04-23T12:04:32;86804.59;;;16.35;42.56
21623;BME280;10973;46.706;12.340;2023-04-23T12:07:00;86804.78;;;16.28;43.20
21623;BME280;10973;46.706;12.340;2023-04-23T12:09:30;86807.34;;;16.15;41.12
21623;BME280;10973;46.706;12.340;2023-04-23T12:11:57;86806.94;;;16.01;40.83
21623;BME280;10973;46.706;12.340;2023-04-23T12:14:27;86810.09;;;15.96;42.36
21623;BME280;10973;46.706;12.340;2023-04-23T12:16:56;86810.75;;;15.84;43.67
21623;BME280;10973;46.706;12.340;2023-04-23T12:19:29;86817.63;;;15.81;44.45
21623;BME280;10973;46.706;12.340;2023-04-23T12:22:02;86819.41;;;15.88;46.05
21623;BME280;10973;46.706;12.340;2023-04-23T12:24:46;86815.75;;;15.98;46.41
21623;BME280;10973;46.706;12.340;2023-04-23T12:27:15;86814.91;;;16.01;47.01
21623;BME280;10973;46.706;12.340;2023-04-23T12:29:42;86819.06;;;16.02;47.86
21623;BME280;10973;46.706;12.340;2023-04-23T12:32:10;86817.91;;;15.87;50.57
21623;BME280;10973;46.706;12.340;2023-04-23T12:34:51;86808.34;;;15.89;50.66
21623;BME280;10973;46.706;12.340;2023-04-23T12:37:28;86808.03;;;15.87;51.04
21623;BME280;10973;46.706;12.340;2023-04-23T12:39:56;86811.25;;;15.79;50.37
21623;BME280;10973;46.706;12.340;2023-04-23T12:42:24;86807.16;;;15.58;50.67
21623;BME280;10973;46.706;12.340;2023-04-23T12:44:52;86797.25;;;15.58;51.06
21623;BME280;10973;46.706;12.340;2023-04-23T12:47:19;86801.09;;;15.57;50.41
21623;BME280;10973;46.706;12.340;2023-04-23T12:49:49;86811.78;;;15.54;50.14
21623;BME280;10973;46.706;12.340;2023-04-23T12:52:16;86802.94;;;15.60;51.58
21623;BME280;10973;46.706;12.340;2023-04-23T12:54:43;86806.91;;;15.52;50.16
21623;BME280;10973;46.706;12.340;2023-04-23T12:57:12;86797.44;;;15.51;50.50
21623;BME280;10973;46.706;12.340;2023-04-23T12:59:39;86803.56;;;15.48;49.94